Norfolk, Virginia
Traffic Map
Current Weather Conditions
Norfolk, Virginia
Clear
Clear
72°
Feels Like: 72°
Wind Chill: 72° Ceiling: Unl
Heat Index: 72° Visibility: 10mi
Dew Point: 66° Wind: 0mph
Humidity: 81% Direction: ° ()
Pressure: 30.14in Gusts: 0mph
Raw Report DataKORF 301151Z AUTO 00000KT 10SM CLR 22/19 A3014 RMK AO2 SLP206 T02220189 10222 20189 53014 TSNO
Traffic Incident Summary
Active as of:
Severity:
Category:
InformationThere was an issue retrieving the traffic information for this location. Please try a different location or try again shortly.
Advertisements
Track Severe Weather on mobile